Time;durP1;ratioP1;P1;durP2;ratioP2;P2;SDS_P1;SDS_P2;PMS_P1;PMS_P2;Temp;Humidity;BMP_temperature;BMP_pressure;BME280_temperature;BME280_humidity;BME280_pressure;Samples;Min_cycle;Max_cycle;Signal;HPM_P1;HPM_P2
2021/06/22 00:02:05;;;;;;;5.40;2.87;;;;;;;;;;4994051;28;20187;-57
2021/06/22 00:04:31;;;;;;;3.43;2.60;;;;;;;;;;4992788;28;20198;-60
2021/06/22 00:06:57;;;;;;;3.53;2.60;;;;;;;;;;4992978;28;20209;-57
2021/06/22 00:09:24;;;;;;;5.20;2.80;;;;;;;;;;4983602;28;20220;-57
2021/06/22 00:11:50;;;;;;;5.03;2.73;;;;;;;;;;4984112;28;20186;-56
2021/06/22 00:14:16;;;;;;;5.27;2.73;;;;;;;;;;4991443;28;20656;-56
2021/06/22 00:16:42;;;;;;;2.80;2.57;;;;;;;;;;4993814;28;20237;-56
2021/06/22 00:19:08;;;;;;;4.87;2.83;;;;;;;;;;4992857;28;20498;-56
2021/06/22 00:21:34;;;;;;;2.77;2.57;;;;;;;;;;4993261;28;20207;-57
2021/06/22 00:24:00;;;;;;;3.80;2.73;;;;;;;;;;4992869;28;20213;-56
2021/06/22 00:26:26;;;;;;;2.60;2.40;;;;;;;;;;4993144;28;20179;-56
2021/06/22 00:28:52;;;;;;;3.60;2.83;;;;;;;;;;4992056;28;20214;-57
2021/06/22 00:31:18;;;;;;;4.80;3.20;;;;;;;;;;4993877;28;20178;-57
2021/06/22 00:33:45;;;;;;;2.73;2.53;;;;;;;;;;4992850;28;20183;-56
2021/06/22 00:36:11;;;;;;;4.03;2.57;;;;;;;;;;4993426;28;20413;-57
2021/06/22 00:38:38;;;;;;;4.53;2.77;;;;;;;;;;4993006;28;20657;-58
2021/06/22 00:41:04;;;;;;;3.40;2.77;;;;;;;;;;4992716;28;20226;-58
2021/06/22 00:43:30;;;;;;;4.63;3.53;;;;;;;;;;4992547;28;20179;-57
2021/06/22 00:45:56;;;;;;;3.73;2.50;;;;;;;;;;4992602;28;20188;-57
2021/06/22 00:48:22;;;;;;;2.87;2.67;;;;;;;;;;4993024;28;20183;-56
2021/06/22 00:50:48;;;;;;;2.60;2.40;;;;;;;;;;4992539;28;20191;-57
2021/06/22 00:53:14;;;;;;;4.43;2.67;;;;;;;;;;4992977;28;20205;-59
2021/06/22 00:55:40;;;;;;;3.07;2.30;;;;;;;;;;4992497;28;20195;-56
2021/06/22 00:58:07;;;;;;;2.63;2.40;;;;;;;;;;4990625;28;20202;-57
2021/06/22 01:00:34;;;;;;;4.07;2.70;;;;;;;;;;4992136;28;20306;-58
2021/06/22 01:03:01;;;;;;;4.53;2.93;;;;;;;;;;4989672;28;20245;-57
2021/06/22 01:05:27;;;;;;;3.07;2.53;;;;;;;;;;4991448;28;20266;-57
2021/06/22 01:07:54;;;;;;;5.43;2.23;;;;;;;;;;4991063;28;20246;-57
2021/06/22 01:10:21;;;;;;;2.60;2.40;;;;;;;;;;4990699;28;20191;-56
2021/06/22 01:12:48;;;;;;;3.37;2.27;;;;;;;;;;4971058;28;20650;-58
2021/06/22 01:15:18;;;;;;;4.83;2.30;;;;;;;;;;4988000;28;20198;-57
2021/06/22 01:17:45;;;;;;;3.97;2.47;;;;;;;;;;4981791;28;20334;-57
2021/06/22 01:20:12;;;;;;;2.83;2.30;;;;;;;;;;4990612;28;20717;-56
2021/06/22 01:22:42;;;;;;;3.07;2.60;;;;;;;;;;4991887;28;20182;-58
2021/06/22 01:25:08;;;;;;;4.00;2.60;;;;;;;;;;4991456;28;20592;-60
2021/06/22 01:27:34;;;;;;;2.97;2.40;;;;;;;;;;4991274;28;20214;-58
2021/06/22 01:30:01;;;;;;;4.73;2.30;;;;;;;;;;4989871;28;20179;-56
2021/06/22 01:32:27;;;;;;;2.87;2.23;;;;;;;;;;4991095;28;20298;-56
2021/06/22 01:34:53;;;;;;;4.87;2.50;;;;;;;;;;4990293;28;20194;-59
2021/06/22 01:37:19;;;;;;;3.00;2.33;;;;;;;;;;4992123;28;20191;-57
2021/06/22 01:39:45;;;;;;;2.87;2.33;;;;;;;;;;4993659;28;20270;-57
2021/06/22 01:42:11;;;;;;;6.23;2.57;;;;;;;;;;4990462;28;20190;-57
2021/06/22 01:44:37;;;;;;;4.10;2.33;;;;;;;;;;4990695;28;20309;-57
2021/06/22 01:47:04;;;;;;;3.77;2.73;;;;;;;;;;4990841;28;20201;-58
2021/06/22 01:49:31;;;;;;;4.20;2.70;;;;;;;;;;4989143;28;20198;-56
2021/06/22 01:51:57;;;;;;;4.70;2.20;;;;;;;;;;4990941;28;20269;-56
2021/06/22 01:54:23;;;;;;;4.27;2.50;;;;;;;;;;4993684;28;20315;-60
2021/06/22 01:56:51;;;;;;;6.50;2.63;;;;;;;;;;4990521;28;20187;-56
2021/06/22 01:59:17;;;;;;;3.57;2.37;;;;;;;;;;4990348;28;20622;-57
2021/06/22 02:01:44;;;;;;;5.03;2.80;;;;;;;;;;4990317;28;20752;-58
2021/06/22 02:04:10;;;;;;;5.30;2.53;;;;;;;;;;4989360;28;20495;-56
2021/06/22 02:06:37;;;;;;;4.73;2.53;;;;;;;;;;4986221;28;20207;-56
2021/06/22 02:09:03;;;;;;;3.90;2.73;;;;;;;;;;4974435;28;20219;-56
2021/06/22 02:11:29;;;;;;;2.87;2.27;;;;;;;;;;4992076;28;20191;-56
2021/06/22 02:13:55;;;;;;;5.20;3.47;;;;;;;;;;4988539;28;20183;-56
2021/06/22 02:16:21;;;;;;;3.60;2.87;;;;;;;;;;4991139;28;20187;-56
2021/06/22 02:18:48;;;;;;;2.63;2.30;;;;;;;;;;4988945;28;20237;-57
2021/06/22 02:21:14;;;;;;;6.20;2.57;;;;;;;;;;4989084;28;20207;-59
2021/06/22 02:23:40;;;;;;;3.53;2.43;;;;;;;;;;4989258;28;20187;-58
2021/06/22 02:26:06;;;;;;;4.67;2.53;;;;;;;;;;4990734;28;20668;-57
2021/06/22 02:28:33;;;;;;;4.60;2.63;;;;;;;;;;4990206;28;20186;-56
2021/06/22 02:30:59;;;;;;;4.40;2.43;;;;;;;;;;4990407;28;20410;-58
2021/06/22 02:33:25;;;;;;;2.70;2.40;;;;;;;;;;4988461;28;20180;-58
2021/06/22 02:35:52;;;;;;;6.77;3.10;;;;;;;;;;4987269;28;20191;-57
2021/06/22 02:38:18;;;;;;;3.27;2.53;;;;;;;;;;4990024;28;20187;-56
2021/06/22 02:40:44;;;;;;;4.83;2.80;;;;;;;;;;4990637;28;20261;-57
2021/06/22 02:43:11;;;;;;;5.20;2.43;;;;;;;;;;4989998;28;20254;-56
2021/06/22 02:45:37;;;;;;;5.43;3.20;;;;;;;;;;4990826;28;20258;-57
2021/06/22 02:48:04;;;;;;;4.17;2.30;;;;;;;;;;4990355;28;20163;-56
2021/06/22 02:50:30;;;;;;;3.87;2.40;;;;;;;;;;4988252;28;20204;-58
2021/06/22 02:52:56;;;;;;;4.23;2.43;;;;;;;;;;4990406;28;20178;-56
2021/06/22 02:55:22;;;;;;;3.90;3.00;;;;;;;;;;4989136;28;20206;-57
2021/06/22 02:57:49;;;;;;;5.87;2.60;;;;;;;;;;4989802;28;20183;-57
2021/06/22 03:00:19;;;;;;;5.87;2.53;;;;;;;;;;4990191;28;20209;-58
2021/06/22 03:02:45;;;;;;;3.33;2.93;;;;;;;;;;4990948;28;20214;-58
2021/06/22 03:05:11;;;;;;;4.43;2.87;;;;;;;;;;4985843;28;20184;-56
2021/06/22 03:07:38;;;;;;;5.37;2.47;;;;;;;;;;4985784;28;20218;-56
2021/06/22 03:10:08;;;;;;;4.23;2.60;;;;;;;;;;4989678;28;20552;-57
2021/06/22 03:12:34;;;;;;;5.60;3.00;;;;;;;;;;4989648;28;20230;-57
2021/06/22 03:15:00;;;;;;;5.40;2.67;;;;;;;;;;4989465;28;20303;-57
2021/06/22 03:17:27;;;;;;;4.97;2.40;;;;;;;;;;4990702;28;20544;-57
2021/06/22 03:19:53;;;;;;;3.70;2.50;;;;;;;;;;4988371;28;20550;-55
2021/06/22 03:22:19;;;;;;;5.37;2.60;;;;;;;;;;4990664;28;20167;-58
2021/06/22 03:24:46;;;;;;;3.60;2.47;;;;;;;;;;4988718;28;20184;-57
2021/06/22 03:27:12;;;;;;;3.80;2.93;;;;;;;;;;4989822;28;20515;-57
2021/06/22 03:29:38;;;;;;;6.20;2.80;;;;;;;;;;4989744;28;20179;-56
2021/06/22 03:32:04;;;;;;;3.87;2.60;;;;;;;;;;4989689;28;20190;-57
2021/06/22 03:34:31;;;;;;;3.20;2.40;;;;;;;;;;4989155;28;20209;-58
2021/06/22 03:36:57;;;;;;;4.13;2.87;;;;;;;;;;4989598;28;20194;-57
2021/06/22 03:39:23;;;;;;;5.03;3.00;;;;;;;;;;4988948;28;20206;-56
2021/06/22 03:41:49;;;;;;;4.87;2.83;;;;;;;;;;4990297;28;20697;-57
2021/06/22 03:44:15;;;;;;;7.43;3.73;;;;;;;;;;4988963;28;20179;-56
2021/06/22 03:46:44;;;;;;;5.43;2.60;;;;;;;;;;4989371;28;20187;-57
2021/06/22 03:49:10;;;;;;;4.40;2.40;;;;;;;;;;4987674;28;20190;-56
2021/06/22 03:51:36;;;;;;;3.60;2.70;;;;;;;;;;4988335;28;20190;-57
2021/06/22 03:54:02;;;;;;;4.37;2.50;;;;;;;;;;4988845;28;20191;-57
2021/06/22 03:56:29;;;;;;;4.57;2.70;;;;;;;;;;4989781;28;20187;-55
2021/06/22 03:58:55;;;;;;;5.20;2.77;;;;;;;;;;4987675;28;20241;-55
2021/06/22 04:01:21;;;;;;;5.10;2.53;;;;;;;;;;4971128;28;20194;-57
2021/06/22 04:03:47;;;;;;;3.77;2.50;;;;;;;;;;4986391;28;20622;-57
2021/06/22 04:06:14;;;;;;;5.87;2.97;;;;;;;;;;4980676;28;20258;-56
2021/06/22 04:08:41;;;;;;;4.30;2.40;;;;;;;;;;4987484;28;20219;-55
2021/06/22 04:11:07;;;;;;;4.73;2.80;;;;;;;;;;4976949;28;20203;-58
2021/06/22 04:13:33;;;;;;;5.27;2.90;;;;;;;;;;4990791;28;20179;-57
2021/06/22 04:15:59;;;;;;;4.03;2.50;;;;;;;;;;4987416;28;20189;-59
2021/06/22 04:18:25;;;;;;;5.50;2.90;;;;;;;;;;4989829;28;20223;-57
2021/06/22 04:20:52;;;;;;;5.10;2.87;;;;;;;;;;4992194;28;20684;-59
2021/06/22 04:23:18;;;;;;;7.50;3.53;;;;;;;;;;4993335;28;20250;-58
2021/06/22 04:25:44;;;;;;;6.03;2.53;;;;;;;;;;4992853;28;20659;-58
2021/06/22 04:28:10;;;;;;;4.63;2.70;;;;;;;;;;4992459;28;20191;-55
2021/06/22 04:30:37;;;;;;;3.60;2.97;;;;;;;;;;4990854;28;20211;-56
2021/06/22 04:33:04;;;;;;;4.53;2.83;;;;;;;;;;4991265;28;20203;-57
2021/06/22 04:35:30;;;;;;;3.97;2.87;;;;;;;;;;4989391;28;20276;-55
2021/06/22 04:37:57;;;;;;;6.87;3.60;;;;;;;;;;4992173;28;20186;-59
2021/06/22 04:40:24;;;;;;;4.00;2.90;;;;;;;;;;5012783;28;20237;-56
2021/06/22 04:42:50;;;;;;;7.03;3.20;;;;;;;;;;4997302;28;20544;-57
2021/06/22 04:45:16;;;;;;;5.80;3.00;;;;;;;;;;4992237;28;20168;-58
2021/06/22 04:47:42;;;;;;;3.47;2.90;;;;;;;;;;4990580;28;20543;-58
2021/06/22 04:50:08;;;;;;;4.63;3.13;;;;;;;;;;4990138;28;20241;-58
2021/06/22 04:52:34;;;;;;;5.23;3.07;;;;;;;;;;4991692;28;20553;-58
2021/06/22 04:55:01;;;;;;;6.23;3.40;;;;;;;;;;4989830;28;20275;-57
2021/06/22 04:57:27;;;;;;;4.33;2.97;;;;;;;;;;4990478;28;20217;-58
2021/06/22 04:59:53;;;;;;;5.63;3.43;;;;;;;;;;4989573;28;20214;-56
2021/06/22 05:02:20;;;;;;;5.03;3.53;;;;;;;;;;4991006;28;20553;-57
2021/06/22 05:04:46;;;;;;;5.47;3.67;;;;;;;;;;4988746;28;20233;-57
2021/06/22 05:07:12;;;;;;;6.03;3.53;;;;;;;;;;4991885;28;20208;-57
2021/06/22 05:09:38;;;;;;;4.90;3.23;;;;;;;;;;4991831;28;20183;-56
2021/06/22 05:12:05;;;;;;;4.37;3.07;;;;;;;;;;4990490;28;20183;-55
2021/06/22 05:14:31;;;;;;;5.37;3.37;;;;;;;;;;4990227;28;20282;-57
2021/06/22 05:16:57;;;;;;;3.87;3.00;;;;;;;;;;4978600;28;20193;-60
2021/06/22 05:19:23;;;;;;;3.40;2.83;;;;;;;;;;4991553;28;20557;-59
2021/06/22 05:21:49;;;;;;;3.73;3.20;;;;;;;;;;4988734;28;20207;-59
2021/06/22 05:24:16;;;;;;;4.30;3.10;;;;;;;;;;4988554;28;20340;-57
2021/06/22 05:26:42;;;;;;;4.90;3.23;;;;;;;;;;4992878;28;20250;-58
2021/06/22 05:29:11;;;;;;;6.93;3.40;;;;;;;;;;4991224;28;20692;-57
2021/06/22 05:31:37;;;;;;;6.40;3.53;;;;;;;;;;4990990;28;20195;-58
2021/06/22 05:34:03;;;;;;;9.00;3.50;;;;;;;;;;4991356;28;20562;-58
2021/06/22 05:36:29;;;;;;;7.40;3.80;;;;;;;;;;4992435;28;20230;-57
2021/06/22 05:38:55;;;;;;;6.60;3.73;;;;;;;;;;4992121;28;20627;-57
2021/06/22 05:41:21;;;;;;;6.73;3.63;;;;;;;;;;4992529;28;20724;-57
2021/06/22 05:43:47;;;;;;;5.93;3.23;;;;;;;;;;4991718;28;20218;-58
2021/06/22 05:46:13;;;;;;;4.53;3.00;;;;;;;;;;4991262;28;20263;-58
2021/06/22 05:48:39;;;;;;;3.13;2.70;;;;;;;;;;4992586;28;20186;-56
2021/06/22 05:51:05;;;;;;;5.30;2.80;;;;;;;;;;4991474;28;20183;-57
2021/06/22 05:53:31;;;;;;;4.53;3.17;;;;;;;;;;4992739;28;20465;-57
2021/06/22 05:55:57;;;;;;;4.57;3.43;;;;;;;;;;4993734;28;20215;-59
2021/06/22 05:58:23;;;;;;;4.83;3.20;;;;;;;;;;4992444;28;20195;-59
2021/06/22 06:00:49;;;;;;;5.57;3.10;;;;;;;;;;4994047;28;20202;-56
2021/06/22 06:03:16;;;;;;;5.80;3.13;;;;;;;;;;4991513;28;20277;-56
2021/06/22 06:05:42;;;;;;;6.20;2.63;;;;;;;;;;4990663;28;20218;-57
2021/06/22 06:08:08;;;;;;;5.37;3.57;;;;;;;;;;4992648;28;20254;-60
2021/06/22 06:10:34;;;;;;;4.40;2.80;;;;;;;;;;5011524;28;20228;-58
2021/06/22 06:13:00;;;;;;;6.13;2.93;;;;;;;;;;5001608;28;20171;-57
2021/06/22 06:15:26;;;;;;;6.97;3.30;;;;;;;;;;4990156;28;20281;-58
2021/06/22 06:17:54;;;;;;;3.97;2.97;;;;;;;;;;4989753;28;20769;-57
2021/06/22 06:20:20;;;;;;;3.03;2.73;;;;;;;;;;4990551;28;20235;-56
2021/06/22 06:22:48;;;;;;;4.47;3.23;;;;;;;;;;4992125;28;20179;-58
2021/06/22 06:25:15;;;;;;;6.07;2.90;;;;;;;;;;4991293;28;20200;-57
2021/06/22 06:27:48;;;;;;;4.17;2.93;;;;;;;;;;4990399;28;20669;-57
2021/06/22 06:30:17;;;;;;;4.17;3.00;;;;;;;;;;4978998;28;20187;-57
2021/06/22 06:32:44;;;;;;;6.17;3.30;;;;;;;;;;4971830;28;20190;-59
2021/06/22 06:35:10;;;;;;;3.77;3.03;;;;;;;;;;4985799;28;20186;-56
2021/06/22 06:37:36;;;;;;;3.53;2.93;;;;;;;;;;4994367;28;20278;-57
2021/06/22 06:40:03;;;;;;;5.00;3.47;;;;;;;;;;4990098;28;20632;-57
2021/06/22 06:42:29;;;;;;;4.77;3.00;;;;;;;;;;4991827;28;20185;-56
2021/06/22 06:44:56;;;;;;;3.80;2.63;;;;;;;;;;4989393;28;20163;-59
2021/06/22 06:47:22;;;;;;;5.67;2.73;;;;;;;;;;4990770;28;20705;-56
2021/06/22 06:49:48;;;;;;;6.00;3.77;;;;;;;;;;4990327;28;20180;-58
2021/06/22 06:52:14;;;;;;;5.00;3.27;;;;;;;;;;4990570;28;20195;-56
2021/06/22 06:54:40;;;;;;;6.53;3.00;;;;;;;;;;4988445;28;20245;-58
2021/06/22 06:57:07;;;;;;;3.57;3.27;;;;;;;;;;4990388;28;20626;-57
2021/06/22 06:59:33;;;;;;;7.07;3.33;;;;;;;;;;4989705;28;20229;-57
2021/06/22 07:02:00;;;;;;;4.73;3.10;;;;;;;;;;4978326;28;20200;-57
2021/06/22 07:04:26;;;;;;;3.87;2.87;;;;;;;;;;4984242;28;20178;-57
2021/06/22 07:06:54;;;;;;;5.27;3.07;;;;;;;;;;4990515;28;20321;-57
2021/06/22 07:09:20;;;;;;;4.63;3.23;;;;;;;;;;4989300;28;20219;-57
2021/06/22 07:11:46;;;;;;;6.63;3.43;;;;;;;;;;4983456;28;20191;-58
2021/06/22 07:14:14;;;;;;;5.87;3.23;;;;;;;;;;4989561;28;20249;-57
2021/06/22 07:16:41;;;;;;;4.87;3.27;;;;;;;;;;4989829;28;20187;-58
2021/06/22 07:19:07;;;;;;;6.10;3.63;;;;;;;;;;4989838;28;20179;-59
2021/06/22 07:21:33;;;;;;;3.93;3.07;;;;;;;;;;4988789;28;20218;-57
2021/06/22 07:23:59;;;;;;;4.47;3.27;;;;;;;;;;4990319;28;20522;-59
2021/06/22 07:26:25;;;;;;;6.53;3.30;;;;;;;;;;4985864;28;20234;-58
2021/06/22 07:28:52;;;;;;;5.60;3.20;;;;;;;;;;4978225;28;20178;-58
2021/06/22 07:31:18;;;;;;;7.27;4.23;;;;;;;;;;4989205;28;20194;-56
2021/06/22 07:33:44;;;;;;;4.70;3.13;;;;;;;;;;4984498;28;20191;-57
2021/06/22 07:36:10;;;;;;;5.07;3.33;;;;;;;;;;4998105;28;20179;-59
2021/06/22 07:38:36;;;;;;;6.30;3.07;;;;;;;;;;5002025;28;20238;-59
2021/06/22 07:41:03;;;;;;;4.70;3.00;;;;;;;;;;4983687;28;20199;-57
2021/06/22 07:43:29;;;;;;;3.87;2.70;;;;;;;;;;4974939;28;20180;-58
2021/06/22 07:45:55;;;;;;;4.23;3.37;;;;;;;;;;4984349;28;20183;-59
2021/06/22 07:48:21;;;;;;;3.17;2.80;;;;;;;;;;4990124;28;20185;-58
2021/06/22 07:50:47;;;;;;;4.83;2.70;;;;;;;;;;4979819;28;20185;-58
2021/06/22 07:53:14;;;;;;;7.23;3.30;;;;;;;;;;4975987;28;20183;-57
2021/06/22 07:55:40;;;;;;;4.67;3.23;;;;;;;;;;4993888;28;20194;-59
2021/06/22 07:58:06;;;;;;;5.07;3.27;;;;;;;;;;4992413;28;20186;-59
2021/06/22 08:03:08;;;;;;;7.03;3.30;;;;;;;;;;4991121;28;20592;-58
2021/06/22 08:05:34;;;;;;;4.20;3.50;;;;;;;;;;4991252;28;20203;-58
2021/06/22 08:08:00;;;;;;;3.90;3.50;;;;;;;;;;4991620;28;20285;-57
2021/06/22 08:10:27;;;;;;;4.90;3.93;;;;;;;;;;4993947;28;20194;-57
2021/06/22 08:12:53;;;;;;;6.00;3.30;;;;;;;;;;4976352;28;20194;-57
2021/06/22 08:15:19;;;;;;;5.17;3.27;;;;;;;;;;4994351;28;20186;-59
2021/06/22 08:17:45;;;;;;;7.07;2.77;;;;;;;;;;4994094;28;20178;-59
2021/06/22 08:20:12;;;;;;;5.30;3.50;;;;;;;;;;4991678;28;20183;-60
2021/06/22 08:22:42;;;;;;;6.47;3.47;;;;;;;;;;4993576;28;20215;-59
2021/06/22 08:25:11;;;;;;;5.43;3.33;;;;;;;;;;4992757;28;20238;-58
2021/06/22 08:27:37;;;;;;;4.50;3.13;;;;;;;;;;4992833;28;20168;-58
2021/06/22 08:30:04;;;;;;;4.80;3.40;;;;;;;;;;4973261;28;20180;-58
2021/06/22 08:32:32;;;;;;;4.10;3.20;;;;;;;;;;4991178;28;20210;-58
2021/06/22 08:34:58;;;;;;;4.47;3.27;;;;;;;;;;4990950;28;20184;-58
2021/06/22 08:37:24;;;;;;;4.23;3.43;;;;;;;;;;4974878;28;20176;-58
2021/06/22 08:39:50;;;;;;;3.83;3.53;;;;;;;;;;4992575;28;20226;-56
2021/06/22 08:42:17;;;;;;;4.93;3.23;;;;;;;;;;4992397;28;20199;-59
2021/06/22 08:44:45;;;;;;;3.30;3.00;;;;;;;;;;4992503;28;20195;-57
2021/06/22 08:47:13;;;;;;;6.67;3.57;;;;;;;;;;4975365;28;20173;-58
2021/06/22 08:49:39;;;;;;;4.53;3.20;;;;;;;;;;4991742;28;20213;-56
2021/06/22 08:52:05;;;;;;;4.17;3.53;;;;;;;;;;4992845;28;20569;-57
2021/06/22 08:54:31;;;;;;;5.90;3.00;;;;;;;;;;4992251;28;20194;-58
2021/06/22 08:57:00;;;;;;;4.70;3.30;;;;;;;;;;4974844;28;20586;-58
2021/06/22 08:59:26;;;;;;;5.67;3.33;;;;;;;;;;4992800;28;20191;-58
2021/06/22 09:01:52;;;;;;;4.93;3.20;;;;;;;;;;4992906;28;20211;-59
2021/06/22 09:04:18;;;;;;;3.40;2.70;;;;;;;;;;4992209;28;20536;-59
2021/06/22 09:06:44;;;;;;;3.67;3.30;;;;;;;;;;5000785;28;20540;-57
2021/06/22 09:09:11;;;;;;;3.13;2.83;;;;;;;;;;4982740;28;20224;-57
2021/06/22 09:11:38;;;;;;;4.80;3.00;;;;;;;;;;4972701;28;20302;-58
2021/06/22 09:14:05;;;;;;;6.10;2.83;;;;;;;;;;4986977;28;20192;-57
2021/06/22 09:16:32;;;;;;;8.83;4.00;;;;;;;;;;4971880;28;20195;-60
2021/06/22 09:19:08;;;;;;;3.67;2.90;;;;;;;;;;4972410;28;20186;-57
2021/06/22 09:21:41;;;;;;;3.57;2.80;;;;;;;;;;4972434;28;20283;-57
2021/06/22 09:24:15;;;;;;;5.13;2.93;;;;;;;;;;4972270;28;20238;-58
2021/06/22 09:26:43;;;;;;;5.23;3.43;;;;;;;;;;4972793;28;20199;-60
2021/06/22 09:29:12;;;;;;;6.00;3.47;;;;;;;;;;4972716;28;20638;-58
2021/06/22 09:31:48;;;;;;;4.80;3.10;;;;;;;;;;4949231;28;20200;-58
2021/06/22 09:34:17;;;;;;;4.13;2.83;;;;;;;;;;4964839;28;20655;-58
2021/06/22 09:36:48;;;;;;;3.87;3.07;;;;;;;;;;4955773;28;20565;-58
2021/06/22 09:39:14;;;;;;;4.27;3.10;;;;;;;;;;4954597;28;20192;-57
2021/06/22 09:41:42;;;;;;;4.50;3.23;;;;;;;;;;4972455;28;20207;-58
2021/06/22 09:44:09;;;;;;;3.03;2.73;;;;;;;;;;4971568;28;20697;-57
2021/06/22 09:46:41;;;;;;;4.53;3.30;;;;;;;;;;4972060;28;20190;-58
2021/06/22 09:49:09;;;;;;;5.47;2.70;;;;;;;;;;4971780;28;20188;-59
2021/06/22 09:51:37;;;;;;;5.87;3.20;;;;;;;;;;4971866;28;20179;-58
2021/06/22 09:54:11;;;;;;;5.80;3.47;;;;;;;;;;4971771;28;20625;-58
2021/06/22 09:56:37;;;;;;;4.43;2.73;;;;;;;;;;4972355;28;20206;-61
2021/06/22 09:59:07;;;;;;;3.70;2.80;;;;;;;;;;4970686;28;20187;-57
2021/06/22 10:01:35;;;;;;;4.30;3.00;;;;;;;;;;4971211;28;20724;-58
2021/06/22 10:04:21;;;;;;;3.97;2.73;;;;;;;;;;4971425;28;20184;-59
2021/06/22 10:06:49;;;;;;;3.30;2.80;;;;;;;;;;4972230;28;20194;-60
2021/06/22 10:09:27;;;;;;;7.70;2.83;;;;;;;;;;4968335;28;20574;-58
2021/06/22 10:11:58;;;;;;;4.10;2.80;;;;;;;;;;4971521;28;20184;-59
2021/06/22 10:14:26;;;;;;;4.80;2.83;;;;;;;;;;4971730;28;20195;-57
2021/06/22 10:16:52;;;;;;;8.27;3.43;;;;;;;;;;4969855;28;20195;-57
2021/06/22 10:19:20;;;;;;;4.07;2.80;;;;;;;;;;5002017;28;20184;-59
2021/06/22 10:21:46;;;;;;;6.63;3.00;;;;;;;;;;4971814;28;20207;-58
2021/06/22 10:24:13;;;;;;;3.47;3.00;;;;;;;;;;4971139;28;20195;-60
2021/06/22 10:26:39;;;;;;;4.83;3.37;;;;;;;;;;4971578;28;20164;-57
2021/06/22 10:29:05;;;;;;;4.40;3.43;;;;;;;;;;4970056;28;20185;-59
2021/06/22 10:31:31;;;;;;;5.13;2.70;;;;;;;;;;4971347;28;20183;-60
2021/06/22 10:33:57;;;;;;;3.93;3.50;;;;;;;;;;4969566;28;20619;-58
2021/06/22 10:36:25;;;;;;;4.70;2.90;;;;;;;;;;4970446;28;20190;-58
2021/06/22 10:38:54;;;;;;;8.37;2.90;;;;;;;;;;4976800;28;20191;-58
2021/06/22 10:41:21;;;;;;;4.07;2.63;;;;;;;;;;4990993;28;20205;-58
2021/06/22 10:43:48;;;;;;;3.50;2.57;;;;;;;;;;4990315;28;20182;-58
2021/06/22 10:46:15;;;;;;;3.70;2.70;;;;;;;;;;4986301;28;20630;-59
2021/06/22 10:48:45;;;;;;;6.53;3.03;;;;;;;;;;4967337;28;20192;-60
2021/06/22 10:51:28;;;;;;;7.27;2.87;;;;;;;;;;4989841;28;20659;-58
2021/06/22 10:53:54;;;;;;;4.73;3.73;;;;;;;;;;4990142;28;20183;-59
2021/06/22 10:56:21;;;;;;;3.27;2.97;;;;;;;;;;4971325;28;20193;-57
2021/06/22 10:59:07;;;;;;;5.90;3.00;;;;;;;;;;4978685;28;20187;-59
2021/06/22 11:01:52;;;;;;;4.73;2.97;;;;;;;;;;4976531;28;20211;-59
2021/06/22 11:04:19;;;;;;;5.63;3.27;;;;;;;;;;4979620;28;20266;-60
2021/06/22 11:07:04;;;;;;;4.43;3.10;;;;;;;;;;4961567;28;20202;-58
2021/06/22 11:09:30;;;;;;;4.87;3.00;;;;;;;;;;4987898;28;20179;-57
2021/06/22 11:12:15;;;;;;;7.30;3.37;;;;;;;;;;4989984;28;20175;-59
2021/06/22 11:14:59;;;;;;;3.43;2.93;;;;;;;;;;4990451;28;20704;-58
2021/06/22 11:17:51;;;;;;;5.97;3.20;;;;;;;;;;4990066;28;20209;-58
2021/06/22 11:20:18;;;;;;;5.20;2.60;;;;;;;;;;4982613;28;20187;-59
2021/06/22 11:23:13;;;;;;;4.87;3.17;;;;;;;;;;5000952;28;20176;-58
2021/06/22 11:26:09;;;;;;;3.10;2.80;;;;;;;;;;4977731;28;20202;-60
2021/06/22 11:28:54;;;;;;;3.47;3.10;;;;;;;;;;4970060;28;20191;-59
2021/06/22 11:31:39;;;;;;;3.63;2.87;;;;;;;;;;4976816;28;20181;-60
2021/06/22 11:34:05;;;;;;;4.80;3.23;;;;;;;;;;4993125;28;20175;-59
2021/06/22 11:36:32;;;;;;;4.10;3.40;;;;;;;;;;4993741;28;20186;-59
2021/06/22 11:39:27;;;;;;;6.10;4.03;;;;;;;;;;5008605;28;20549;-57
2021/06/22 11:42:12;;;;;;;5.60;3.07;;;;;;;;;;4981470;28;20745;-60
2021/06/22 11:44:39;;;;;;;3.70;3.17;;;;;;;;;;4993697;28;20185;-58
2021/06/22 11:47:06;;;;;;;4.07;3.57;;;;;;;;;;4994309;28;20669;-60
2021/06/22 11:49:45;;;;;;;4.70;3.03;;;;;;;;;;4992880;28;20645;-59
2021/06/22 11:52:11;;;;;;;5.37;3.17;;;;;;;;;;4993825;28;20194;-59
2021/06/22 11:54:47;;;;;;;3.07;2.53;;;;;;;;;;4993966;28;20646;-59
2021/06/22 11:57:16;;;;;;;4.67;2.87;;;;;;;;;;4993532;28;20186;-60
2021/06/22 11:59:42;;;;;;;3.73;2.67;;;;;;;;;;4993507;28;20520;-59
2021/06/22 12:02:08;;;;;;;4.00;2.87;;;;;;;;;;4994142;28;20666;-59
2021/06/22 12:04:34;;;;;;;5.13;3.30;;;;;;;;;;4991696;28;21169;-59
2021/06/22 12:07:00;;;;;;;4.57;3.20;;;;;;;;;;4993552;28;20199;-57
2021/06/22 12:09:27;;;;;;;3.63;2.97;;;;;;;;;;4992672;28;20220;-58
2021/06/22 12:11:55;;;;;;;5.87;3.10;;;;;;;;;;4992154;28;20215;-61
2021/06/22 12:14:21;;;;;;;8.80;3.57;;;;;;;;;;4992724;28;20580;-57
2021/06/22 12:16:48;;;;;;;4.00;3.13;;;;;;;;;;4993379;28;20520;-59
2021/06/22 12:19:18;;;;;;;5.90;3.33;;;;;;;;;;4992714;28;20695;-57
2021/06/22 12:21:54;;;;;;;4.67;3.20;;;;;;;;;;4992939;28;20294;-57
2021/06/22 12:24:21;;;;;;;3.67;2.90;;;;;;;;;;4989030;28;20258;-58
2021/06/22 12:26:52;;;;;;;6.70;2.90;;;;;;;;;;4992992;28;20171;-57
2021/06/22 12:29:21;;;;;;;4.33;3.17;;;;;;;;;;4993211;28;20173;-57
2021/06/22 12:31:51;;;;;;;3.90;3.00;;;;;;;;;;4990500;28;20188;-58
2021/06/22 12:34:17;;;;;;;5.23;2.77;;;;;;;;;;4979806;28;20190;-58
2021/06/22 12:36:43;;;;;;;4.43;2.97;;;;;;;;;;4987133;28;20175;-59
2021/06/22 12:39:10;;;;;;;4.67;3.07;;;;;;;;;;4992039;28;21006;-58
2021/06/22 12:41:36;;;;;;;3.80;3.30;;;;;;;;;;4992000;28;20203;-59
2021/06/22 12:44:06;;;;;;;5.60;2.83;;;;;;;;;;4992166;28;20581;-58
2021/06/22 12:46:34;;;;;;;3.97;3.10;;;;;;;;;;4993248;28;20189;-58
2021/06/22 12:49:01;;;;;;;3.67;2.50;;;;;;;;;;4987640;28;20207;-59
2021/06/22 12:51:37;;;;;;;3.40;2.80;;;;;;;;;;4973396;28;20183;-58
2021/06/22 12:54:04;;;;;;;4.03;2.90;;;;;;;;;;4991324;28;20190;-57
2021/06/22 12:56:31;;;;;;;6.30;4.10;;;;;;;;;;4992849;28;20257;-60
2021/06/22 12:59:08;;;;;;;6.03;4.17;;;;;;;;;;4988855;28;20187;-59
2021/06/22 13:01:38;;;;;;;8.20;4.13;;;;;;;;;;4992781;28;20186;-58
2021/06/22 13:04:06;;;;;;;4.70;4.23;;;;;;;;;;4997728;28;20183;-58
2021/06/22 13:06:34;;;;;;;8.37;3.73;;;;;;;;;;4992045;28;20183;-57
2021/06/22 13:09:02;;;;;;;5.17;3.90;;;;;;;;;;4990469;28;20253;-57
2021/06/22 13:11:29;;;;;;;5.13;4.30;;;;;;;;;;4991792;28;20184;-58
2021/06/22 13:14:10;;;;;;;4.53;3.53;;;;;;;;;;4991439;28;20214;-57
2021/06/22 13:16:36;;;;;;;6.40;4.43;;;;;;;;;;4992518;28;20641;-58
2021/06/22 13:19:10;;;;;;;5.13;3.80;;;;;;;;;;4991075;28;20186;-58
2021/06/22 13:21:47;;;;;;;6.23;3.47;;;;;;;;;;4990266;28;20207;-61
2021/06/22 13:24:14;;;;;;;5.37;3.80;;;;;;;;;;4991530;28;20317;-59
2021/06/22 13:26:42;;;;;;;4.77;3.83;;;;;;;;;;4992144;28;20241;-58
2021/06/22 13:29:08;;;;;;;5.73;3.80;;;;;;;;;;4989826;28;20183;-58
2021/06/22 13:31:35;;;;;;;5.63;3.93;;;;;;;;;;4987800;28;20552;-58
2021/06/22 13:34:05;;;;;;;4.30;3.90;;;;;;;;;;4988494;28;20547;-61
2021/06/22 13:36:32;;;;;;;9.50;4.00;;;;;;;;;;4992161;28;20217;-59
2021/06/22 13:39:05;;;;;;;5.20;3.70;;;;;;;;;;4992058;28;20187;-57
2021/06/22 13:41:42;;;;;;;5.43;3.90;;;;;;;;;;4990093;28;20265;-58
2021/06/22 13:44:08;;;;;;;9.23;4.07;;;;;;;;;;4981124;28;20168;-57
2021/06/22 13:46:37;;;;;;;7.30;5.17;;;;;;;;;;4984005;28;20282;-58
2021/06/22 13:49:04;;;;;;;6.97;4.53;;;;;;;;;;4991205;28;20645;-58
2021/06/22 13:51:31;;;;;;;7.03;4.87;;;;;;;;;;4988923;28;20202;-56
2021/06/22 13:54:05;;;;;;;7.37;4.57;;;;;;;;;;4987609;28;20274;-57
2021/06/22 13:56:31;;;;;;;9.80;5.37;;;;;;;;;;4993124;28;20195;-56
2021/06/22 13:58:58;;;;;;;5.40;4.67;;;;;;;;;;4990524;28;20204;-57
2021/06/22 14:01:24;;;;;;;6.67;4.53;;;;;;;;;;5016240;28;20333;-58
2021/06/22 14:03:50;;;;;;;15.10;4.80;;;;;;;;;;4990295;28;20743;-57
2021/06/22 14:06:16;;;;;;;11.13;4.67;;;;;;;;;;4992064;28;20321;-57
2021/06/22 14:08:42;;;;;;;6.87;4.93;;;;;;;;;;4960651;28;20703;-59
2021/06/22 14:11:08;;;;;;;6.67;4.37;;;;;;;;;;4972947;28;20187;-58
2021/06/22 14:13:34;;;;;;;11.87;5.43;;;;;;;;;;4953745;28;20196;-58
2021/06/22 14:16:01;;;;;;;5.30;4.80;;;;;;;;;;4970012;28;20183;-57
2021/06/22 14:18:30;;;;;;;7.53;4.97;;;;;;;;;;4967520;28;20215;-59
2021/06/22 14:20:56;;;;;;;6.77;4.67;;;;;;;;;;4969194;28;20633;-59
2021/06/22 14:23:22;;;;;;;7.67;4.37;;;;;;;;;;4960930;28;20179;-60
2021/06/22 14:25:49;;;;;;;7.90;3.83;;;;;;;;;;4953060;28;20204;-60
2021/06/22 14:28:19;;;;;;;5.43;4.03;;;;;;;;;;4969998;28;20453;-60
2021/06/22 14:30:49;;;;;;;5.07;3.80;;;;;;;;;;4975443;28;20183;-60
2021/06/22 14:33:16;;;;;;;6.00;4.13;;;;;;;;;;4966022;28;20668;-58
2021/06/22 14:35:42;;;;;;;6.60;4.37;;;;;;;;;;4965997;28;20194;-58
2021/06/22 14:38:08;;;;;;;4.37;3.90;;;;;;;;;;4987300;28;20191;-58
2021/06/22 14:40:34;;;;;;;4.93;4.23;;;;;;;;;;4959080;28;20199;-59
2021/06/22 14:43:00;;;;;;;8.45;4.90;;;;;;;;;;4954007;28;20422;-60
2021/06/22 14:45:28;;;;;;;6.40;4.77;;;;;;;;;;4986785;28;20207;-58
2021/06/22 14:47:55;;;;;;;10.37;4.33;;;;;;;;;;4987367;28;20184;-58
2021/06/22 14:50:21;;;;;;;6.10;4.33;;;;;;;;;;4970952;28;20188;-57